Time;durP1;ratioP1;P1;durP2;ratioP2;P2;SDS_P1;SDS_P2;PMS_P1;PMS_P2;Temp;Humidity;BMP_temperature;BMP_pressure;BME280_temperature;BME280_humidity;BME280_pressure;Samples;Min_cycle;Max_cycle;Signal;HPM_P1;HPM_P2
2020/12/08 02:12:47;;;;;;;21.17;11.47;;;2.10;99.90;;;;;;1084851;39;20488;-87
2020/12/08 02:15:40;;;;;;;16.87;10.57;;;2.10;99.90;;;;;;3475228;33;20713;-89
2020/12/08 02:18:21;;;;;;;21.40;12.17;;;2.10;99.90;;;;;;3481097;33;20455;-87
2020/12/08 02:42:36;;;;;;;20.03;12.00;;;1.70;99.90;;;;;;3479355;33;20339;-87
2020/12/08 02:45:15;;;;;;;19.77;12.43;;;1.60;99.90;;;;;;3479560;33;20511;-86
2020/12/08 02:56:33;;;;;;;19.60;12.70;;;1.80;99.90;;;;;;3473651;41;20407;-87
2020/12/08 02:59:02;;;;;;;22.70;13.07;;;1.80;99.90;;;;;;3473529;41;20373;-87
2020/12/08 03:01:41;;;;;;;20.50;12.37;;;1.70;99.90;;;;;;3473017;41;20381;-88
2020/12/08 03:04:13;;;;;;;21.80;13.10;;;1.80;99.90;;;;;;3487535;33;20350;-88
2020/12/08 03:06:45;;;;;;;19.73;12.57;;;1.80;99.90;;;;;;3499208;33;20379;-88
2020/12/08 03:09:20;;;;;;;24.10;12.93;;;1.70;99.90;;;;;;3474093;41;20468;-88
2020/12/08 03:11:52;;;;;;;23.77;12.73;;;1.70;99.90;;;;;;3493017;40;20687;-88
2020/12/08 03:14:29;;;;;;;19.70;13.10;;;1.70;99.90;;;;;;3478493;33;20374;-86
2020/12/08 03:17:02;;;;;;;19.97;11.77;;;1.80;99.90;;;;;;3470638;41;20346;-87
2020/12/08 03:19:37;;;;;;;19.17;12.97;;;1.80;99.90;;;;;;3473800;33;20367;-87
2020/12/08 03:22:10;;;;;;;20.23;11.87;;;1.80;99.90;;;;;;3478047;33;20394;-86
2020/12/08 03:24:48;;;;;;;19.40;12.60;;;1.70;99.90;;;;;;3473150;41;20358;-87
2020/12/08 03:27:17;;;;;;;21.43;13.63;;;1.80;99.90;;;;;;3477024;33;20373;-87
2020/12/08 03:29:45;;;;;;;23.50;13.20;;;1.80;99.90;;;;;;3479254;33;20398;-87
2020/12/08 03:32:12;;;;;;;20.73;13.13;;;1.90;99.90;;;;;;3474577;33;20375;-86
2020/12/08 03:34:43;;;;;;;22.30;12.77;;;1.80;99.90;;;;;;3471427;33;20354;-87
2020/12/08 03:37:21;;;;;;;21.93;12.50;;;1.70;99.90;;;;;;3493388;33;20365;-87
2020/12/08 03:39:48;;;;;;;23.27;13.83;;;1.60;99.90;;;;;;3474716;33;20620;-87
2020/12/08 03:42:14;;;;;;;21.43;13.80;;;1.60;99.90;;;;;;3473639;33;20365;-87
2020/12/08 03:44:45;;;;;;;22.13;13.73;;;1.60;99.90;;;;;;3470430;41;20363;-87
2020/12/08 03:47:22;;;;;;;21.30;12.77;;;1.60;99.90;;;;;;3478820;33;20875;-87
2020/12/08 03:50:02;;;;;;;22.73;13.90;;;1.60;99.90;;;;;;3475349;41;20363;-88
2020/12/08 03:52:36;;;;;;;21.73;13.77;;;1.50;99.90;;;;;;3480195;41;20363;-87
2020/12/08 03:55:23;;;;;;;22.90;13.37;;;1.50;99.90;;;;;;3479983;33;20350;-87
2020/12/08 03:57:55;;;;;;;23.63;14.33;;;1.40;99.90;;;;;;3477944;33;20404;-87
2020/12/08 04:00:21;;;;;;;22.10;13.60;;;1.40;99.90;;;;;;3487446;33;20401;-87
2020/12/08 04:02:47;;;;;;;21.13;12.90;;;1.30;99.90;;;;;;3472565;41;20369;-87
2020/12/08 04:05:14;;;;;;;21.17;13.60;;;1.30;99.90;;;;;;3474555;41;20395;-88
2020/12/08 04:08:13;;;;;;;19.27;12.20;;;1.40;99.90;;;;;;3480655;41;20457;-88
2020/12/08 04:11:16;;;;;;;17.13;11.03;;;1.40;99.90;;;;;;3481152;41;20371;-88
2020/12/08 04:13:43;;;;;;;18.90;12.83;;;1.40;99.90;;;;;;3490520;33;20374;-87
2020/12/08 04:16:14;;;;;;;23.10;13.33;;;1.40;99.90;;;;;;3487187;33;20358;-88
2020/12/08 04:22:47;;;;;;;24.27;13.43;;;1.30;99.90;;;;;;3478776;33;20418;-88
2020/12/08 04:26:13;;;;;;;;;;;;;;;;;;;;;
2020/12/08 04:28:47;;;;;;;25.03;13.93;;;1.20;99.90;;;;;;3474020;33;20409;-88
2020/12/08 04:31:47;;;;;;;20.23;12.73;;;1.20;99.90;;;;;;3474842;41;20362;-87
2020/12/08 04:37:47;;;;;;;24.13;14.20;;;1.20;99.90;;;;;;3481273;33;20369;-88
2020/12/08 04:40:16;;;;;;;27.30;14.23;;;1.10;99.90;;;;;;3477218;41;20766;-88
2020/12/08 04:43:04;;;;;;;;;;;;;;;;;;;;;
2020/12/08 04:45:39;;;;;;;24.43;13.87;;;1.20;99.90;;;;;;3479870;33;20393;-88
2020/12/08 04:48:10;;;;;;;23.30;14.33;;;1.30;99.90;;;;;;3474156;33;20358;-88
2020/12/08 04:50:48;;;;;;;24.63;14.00;;;1.40;99.90;;;;;;3482306;41;20389;-88
2020/12/08 04:53:15;;;;;;;23.23;14.20;;;1.50;99.90;;;;;;3471960;41;20467;-88
2020/12/08 04:56:16;;;;;;;;;;;;;;;;;;;;;
2020/12/08 04:58:45;;;;;;;20.57;13.67;;;1.50;99.90;;;;;;3472995;41;20377;-87
2020/12/08 05:01:25;;;;;;;22.37;14.27;;;1.50;99.90;;;;;;3478191;33;20359;-88
2020/12/08 05:03:59;;;;;;;24.40;15.80;;;1.50;99.90;;;;;;3477869;33;20459;-88
2020/12/08 05:06:26;;;;;;;26.17;15.40;;;1.50;99.90;;;;;;3472894;33;20432;-87
2020/12/08 05:12:23;;;;;;;25.20;14.17;;;1.50;99.90;;;;;;3474392;33;20378;-87
2020/12/08 05:14:54;;;;;;;24.03;13.13;;;1.40;99.90;;;;;;3471150;33;20469;-87
2020/12/08 05:17:26;;;;;;;25.67;15.87;;;1.50;99.90;;;;;;3474993;33;20391;-88
2020/12/08 05:20:06;;;;;;;27.97;15.83;;;1.50;99.90;;;;;;3487626;41;20371;-88
2020/12/08 05:29:37;;;;;;;27.30;15.80;;;1.50;99.90;;;;;;3474952;41;20406;-88
2020/12/08 05:32:30;;;;;;;28.80;15.60;;;1.50;99.90;;;;;;3486168;41;20350;-89
2020/12/08 05:34:56;;;;;;;27.10;16.40;;;1.40;99.90;;;;;;3472670;41;20447;-88
2020/12/08 05:37:22;;;;;;;26.40;14.97;;;1.50;99.90;;;;;;3478792;41;20395;-87
2020/12/08 05:39:48;;;;;;;30.27;16.50;;;1.50;99.90;;;;;;3476605;33;20359;-88
2020/12/08 05:42:23;;;;;;;26.40;16.73;;;1.50;99.90;;;;;;3478787;41;20375;-89
2020/12/08 05:44:51;;;;;;;25.50;16.30;;;1.60;99.90;;;;;;3483886;33;20382;-89
2020/12/08 05:47:19;;;;;;;25.73;15.67;;;1.60;99.90;;;;;;3479357;41;20377;-88
2020/12/08 05:49:46;;;;;;;23.80;14.43;;;1.60;99.90;;;;;;3478136;33;20366;-88
2020/12/08 06:09:33;;;;;;;27.60;16.25;;;1.50;99.90;;;;;;5977448;22;9093327;-89
2020/12/08 06:12:02;;;;;;;30.37;16.47;;;1.40;99.90;;;;;;6314837;22;20415;-88
2020/12/08 06:14:36;;;;;;;26.47;15.33;;;1.40;99.90;;;;;;6314535;22;20422;-89
2020/12/08 06:17:07;;;;;;;26.17;16.53;;;1.50;99.90;;;;;;6313397;22;20386;-87
2020/12/08 06:19:43;;;;;;;29.40;17.10;;;1.40;99.90;;;;;;6314894;22;20736;-89
2020/12/08 06:22:11;;;;;;;26.07;15.37;;;1.50;99.90;;;;;;6313557;22;20417;-88
2020/12/08 06:24:57;;;;;;;30.90;16.40;;;1.40;99.90;;;;;;6314072;22;20393;-89
2020/12/08 06:27:38;;;;;;;29.60;17.30;;;1.40;99.90;;;;;;6313179;22;20443;-92
2020/12/08 08:28:18;;;;;;;27.37;17.23;;;1.70;99.90;;;;;;6332791;22;20419;-85
2020/12/08 08:30:54;;;;;;;25.17;15.87;;;1.90;99.90;;;;;;6327496;22;20395;-87
2020/12/08 08:33:22;;;;;;;26.97;17.17;;;2.20;99.90;;;;;;6328968;22;20449;-86
2020/12/08 08:35:50;;;;;;;24.50;14.90;;;2.90;99.90;;;;;;6331791;22;20429;-86
2020/12/08 08:38:26;;;;;;;22.50;15.00;;;3.50;99.90;;;;;;6334321;22;20394;-87
2020/12/08 08:40:57;;;;;;;25.60;16.80;;;3.90;99.90;;;;;;6326411;22;20420;-87
2020/12/08 08:43:28;;;;;;;24.10;16.27;;;4.20;99.90;;;;;;6329866;22;20422;-90
2020/12/08 08:45:57;;;;;;;28.33;16.30;;;4.40;99.90;;;;;;6330305;22;20888;-87
2020/12/08 08:48:24;;;;;;;24.27;16.97;;;4.60;99.90;;;;;;6332313;22;20393;-86
2020/12/08 08:50:52;;;;;;;26.87;17.53;;;4.70;99.90;;;;;;6332535;22;20384;-86
2020/12/08 08:53:21;;;;;;;22.97;15.83;;;4.90;99.90;;;;;;6330046;22;20458;-86
2020/12/08 08:55:48;;;;;;;26.50;16.53;;;5.00;99.90;;;;;;6331892;22;20441;-86
2020/12/08 08:58:21;;;;;;;24.47;16.80;;;5.40;99.90;;;;;;6330947;22;20857;-85
2020/12/08 09:00:54;;;;;;;27.07;16.57;;;5.80;99.90;;;;;;6331377;22;20460;-85
2020/12/08 09:03:26;;;;;;;23.80;16.37;;;5.80;99.90;;;;;;6332618;22;20374;-86
2020/12/08 09:05:53;;;;;;;29.80;16.60;;;6.10;99.90;;;;;;6334071;22;20451;-85
2020/12/08 09:08:24;;;;;;;23.67;16.10;;;6.30;99.90;;;;;;6331557;22;20393;-86
2020/12/08 09:10:52;;;;;;;23.10;16.30;;;6.30;99.90;;;;;;6330614;22;20457;-86
2020/12/08 09:13:20;;;;;;;23.60;16.60;;;6.10;99.90;;;;;;6331867;22;20485;-87
2020/12/08 09:15:51;;;;;;;23.87;16.20;;;6.40;99.90;;;;;;6305603;22;20624;-87
2020/12/08 09:18:29;;;;;;;21.67;14.77;;;6.70;99.90;;;;;;6329418;22;20392;-87
2020/12/08 09:20:56;;;;;;;24.63;16.70;;;6.80;99.90;;;;;;6332469;22;20479;-86
2020/12/08 09:23:27;;;;;;;20.70;15.80;;;6.70;99.90;;;;;;6324346;22;20792;-89
2020/12/08 09:26:05;;;;;;;22.10;15.87;;;6.80;99.90;;;;;;6328595;22;20167;-87
2020/12/08 09:28:55;;;;;;;21.40;15.30;;;6.60;99.90;;;;;;6330385;22;20409;-86
2020/12/08 09:34:09;;;;;;;23.07;16.10;;;6.90;99.90;;;;;;6332956;22;20391;-88
2020/12/08 09:36:51;;;;;;;23.30;16.20;;;7.00;99.90;;;;;;6328462;22;20384;-90
2020/12/08 09:39:42;;;;;;;23.83;16.90;;;7.00;99.90;;;;;;6306509;22;20394;-87
2020/12/08 10:46:11;;;;;;;18.97;15.43;;;12.30;82.90;;;;;;6335145;22;20379;-93
2020/12/08 10:48:45;;;;;;;19.37;15.80;;;12.10;82.80;;;;;;6328448;22;20391;-92
2020/12/08 10:51:39;;;;;;;20.47;16.97;;;12.20;83.10;;;;;;6333374;22;20387;-93
2020/12/08 10:54:05;;;;;;;19.50;16.50;;;11.60;84.20;;;;;;6332935;22;20399;-87
2020/12/08 10:57:22;;;;;;;20.80;16.80;;;10.90;86.30;;;;;;6331856;22;20460;-87
2020/12/08 10:59:48;;;;;;;19.77;16.27;;;10.70;87.50;;;;;;6222828;22;20161;-92
2020/12/08 11:02:37;;;;;;;20.83;16.43;;;10.20;90.10;;;;;;6334966;22;20675;-93
2020/12/08 11:05:14;;;;;;;;;;;;;;;;;;;;;
2020/12/08 11:07:44;;;;;;;18.80;15.13;;;9.70;92.30;;;;;;6319431;22;20470;-92
2020/12/08 11:10:30;;;;;;;;;;;;;;;;;;;;;
2020/12/08 11:12:56;;;;;;;22.50;16.10;;;9.00;92.40;;;;;;6336680;22;20501;-89
2020/12/08 11:15:22;;;;;;;18.87;15.10;;;8.50;93.30;;;;;;6333181;22;20762;-89
2020/12/08 11:17:48;;;;;;;19.80;14.53;;;8.10;94.70;;;;;;6334762;22;20840;-91
2020/12/08 11:20:14;;;;;;;19.43;15.40;;;7.80;96.10;;;;;;6334002;22;20251;-89
2020/12/08 11:22:40;;;;;;;20.10;14.27;;;7.80;96.90;;;;;;6335586;22;20170;-89
2020/12/08 11:25:06;;;;;;;18.20;14.53;;;8.00;97.30;;;;;;6334156;22;20154;-91
2020/12/08 11:27:32;;;;;;;16.93;13.07;;;8.10;96.80;;;;;;6334193;22;20391;-89
2020/12/08 11:30:01;;;;;;;18.83;14.10;;;8.80;95.90;;;;;;6332948;22;20682;-93
2020/12/08 11:35:49;;;;;;;23.13;14.50;;;10.00;93.10;;;;;;6334586;22;20424;-89
2020/12/08 11:38:15;;;;;;;20.73;16.30;;;10.90;91.70;;;;;;6333446;22;20401;-90
2020/12/08 11:40:41;;;;;;;18.17;15.53;;;11.30;90.00;;;;;;6333798;22;20375;-92
2020/12/08 11:46:18;;;;;;;17.27;13.70;;;11.50;86.30;;;;;;6336594;22;20645;-94
2020/12/08 11:52:44;;;;;;;18.20;13.80;;;11.70;84.70;;;;;;6333505;22;20430;-87
2020/12/08 11:55:10;;;;;;;16.57;14.03;;;12.00;84.20;;;;;;6306409;22;20411;-87
2020/12/08 11:57:36;;;;;;;15.53;13.87;;;12.50;81.40;;;;;;6334742;22;20376;-89
2020/12/08 12:00:08;;;;;;;15.60;13.90;;;13.00;77.50;;;;;;6332926;22;20137;-87
2020/12/08 12:06:04;;;;;;;17.90;14.27;;;14.00;68.00;;;;;;6332019;22;20390;-88
2020/12/08 12:08:35;;;;;;;15.33;12.23;;;13.30;67.10;;;;;;6306231;22;20375;-87
2020/12/08 12:11:02;;;;;;;14.17;12.63;;;12.70;68.50;;;;;;6307094;22;20379;-88
2020/12/08 12:13:43;;;;;;;15.53;12.50;;;12.50;68.60;;;;;;6328560;22;20424;-88
2020/12/08 12:16:21;;;;;;;15.30;13.17;;;12.40;70.50;;;;;;6305613;22;20942;-90
2020/12/08 12:18:48;;;;;;;14.63;13.00;;;12.10;72.00;;;;;;6304775;22;20879;-89
2020/12/08 12:21:16;;;;;;;14.87;13.17;;;11.70;72.00;;;;;;6334947;22;20359;-88
2020/12/08 12:23:43;;;;;;;16.07;12.93;;;11.50;75.00;;;;;;6306143;22;20792;-88
2020/12/08 12:26:16;;;;;;;16.67;13.13;;;10.80;78.80;;;;;;6305639;22;20470;-87
2020/12/08 12:28:57;;;;;;;18.03;13.17;;;10.10;82.20;;;;;;6336195;22;20371;-87
2020/12/08 12:31:25;;;;;;;16.00;13.20;;;9.50;87.70;;;;;;6306558;22;20737;-89
2020/12/08 12:33:51;;;;;;;16.20;12.70;;;8.80;91.30;;;;;;6305919;22;20438;-88
2020/12/08 12:36:18;;;;;;;14.57;12.50;;;8.40;93.00;;;;;;6306075;22;20393;-88
2020/12/08 12:38:44;;;;;;;15.20;11.60;;;8.20;95.00;;;;;;6332327;22;20459;-86
2020/12/08 12:41:10;;;;;;;16.33;11.60;;;7.90;94.60;;;;;;6305745;22;20396;-87
2020/12/08 12:43:37;;;;;;;15.50;11.53;;;7.60;95.40;;;;;;6305702;22;20466;-86
2020/12/08 12:46:02;;;;;;;14.73;11.53;;;7.50;95.80;;;;;;6332888;22;20392;-87
2020/12/08 12:48:28;;;;;;;16.03;12.70;;;7.00;96.60;;;;;;6306118;22;20393;-86
2020/12/08 12:50:55;;;;;;;17.20;12.87;;;6.60;98.00;;;;;;6306080;22;20197;-87
2020/12/08 12:53:46;;;;;;;15.40;11.70;;;6.30;98.60;;;;;;6307139;22;20214;-87
2020/12/08 12:56:26;;;;;;;18.77;12.63;;;6.40;99.50;;;;;;6329570;22;20355;-86
2020/12/08 12:58:54;;;;;;;17.23;10.80;;;6.60;99.40;;;;;;6305440;22;20575;-89
2020/12/08 13:01:21;;;;;;;14.77;11.50;;;6.80;98.80;;;;;;6331148;22;20359;-88
2020/12/08 13:03:47;;;;;;;17.10;12.23;;;6.80;98.60;;;;;;6331480;22;20374;-87
2020/12/08 13:06:19;;;;;;;16.43;11.70;;;6.50;99.20;;;;;;6303710;22;20393;-89
2020/12/08 13:08:45;;;;;;;16.80;12.90;;;6.60;99.70;;;;;;6334322;22;20414;-91
2020/12/08 13:11:13;;;;;;;17.57;11.90;;;6.70;99.30;;;;;;6305078;22;20389;-87
2020/12/08 13:13:40;;;;;;;14.30;11.80;;;6.80;99.60;;;;;;6306370;22;20188;-88
2020/12/08 13:16:09;;;;;;;16.77;12.07;;;6.80;99.50;;;;;;6304954;22;20471;-86
2020/12/08 13:18:39;;;;;;;17.90;11.63;;;6.80;99.20;;;;;;6305791;22;20382;-87
2020/12/08 13:21:05;;;;;;;18.50;11.60;;;6.80;99.20;;;;;;6334601;22;20382;-87
2020/12/08 13:23:38;;;;;;;16.50;12.53;;;6.60;99.50;;;;;;6333694;22;20374;-89
2020/12/08 13:26:14;;;;;;;14.43;11.03;;;6.50;99.70;;;;;;6305242;22;20393;-88
2020/12/08 13:28:55;;;;;;;17.30;12.67;;;6.50;99.90;;;;;;6306652;22;20440;-87
2020/12/08 13:31:21;;;;;;;16.17;11.50;;;6.80;99.90;;;;;;6307175;22;20378;-86
2020/12/08 13:33:47;;;;;;;15.43;11.50;;;7.10;98.90;;;;;;6333678;22;20421;-85
2020/12/08 13:36:16;;;;;;;14.73;11.67;;;7.40;98.40;;;;;;6304594;22;20623;-87
2020/12/08 13:38:43;;;;;;;15.10;11.90;;;7.20;98.80;;;;;;6329829;22;20601;-88
2020/12/08 13:41:09;;;;;;;15.33;11.90;;;7.40;98.30;;;;;;6302820;22;20436;-87
2020/12/08 13:43:35;;;;;;;23.80;13.17;;;7.70;97.70;;;;;;6305124;22;20383;-87
2020/12/08 13:46:01;;;;;;;18.17;13.70;;;8.00;97.20;;;;;;6329000;22;20478;-88
2020/12/08 13:48:29;;;;;;;17.60;12.37;;;8.00;96.80;;;;;;6332178;22;20406;-87
2020/12/08 13:50:55;;;;;;;15.60;11.57;;;8.00;96.30;;;;;;6332180;22;20427;-89
2020/12/08 13:53:21;;;;;;;15.83;11.47;;;7.80;96.50;;;;;;6334111;22;20679;-88
2020/12/08 13:55:47;;;;;;;15.67;11.00;;;7.60;97.00;;;;;;6334626;22;20133;-86
2020/12/08 13:58:13;;;;;;;16.90;11.60;;;7.20;98.20;;;;;;6333218;22;20137;-88
2020/12/08 14:00:39;;;;;;;16.70;12.53;;;6.80;99.40;;;;;;6333671;22;20223;-88
2020/12/08 14:03:07;;;;;;;15.37;12.20;;;6.40;99.90;;;;;;6332857;22;20235;-87
2020/12/08 14:05:36;;;;;;;15.83;11.27;;;6.20;99.90;;;;;;6332341;22;20383;-87
2020/12/08 14:08:06;;;;;;;19.87;12.27;;;5.90;99.90;;;;;;6332123;22;20629;-88
2020/12/08 14:10:36;;;;;;;16.03;11.60;;;5.80;99.90;;;;;;6332336;22;20431;-88
2020/12/08 14:13:05;;;;;;;15.97;10.93;;;5.70;99.90;;;;;;6332938;22;20487;-87
2020/12/08 14:15:31;;;;;;;17.17;11.63;;;5.60;99.90;;;;;;6336130;22;20356;-88
2020/12/08 14:17:59;;;;;;;15.57;11.53;;;5.50;99.90;;;;;;6334217;22;20386;-87
2020/12/08 14:20:25;;;;;;;18.37;12.90;;;5.40;99.90;;;;;;6336231;22;20680;-88
2020/12/08 14:22:51;;;;;;;18.07;11.90;;;5.30;99.90;;;;;;6327179;22;20390;-87
2020/12/08 14:25:46;;;;;;;17.50;12.90;;;5.30;99.90;;;;;;6335081;22;20362;-88
2020/12/08 14:28:46;;;;;;;16.33;11.37;;;5.30;99.90;;;;;;6333926;22;20388;-86
2020/12/08 14:31:14;;;;;;;17.77;12.30;;;5.00;99.90;;;;;;6332781;22;20388;-87
2020/12/08 14:33:42;;;;;;;22.13;13.47;;;4.80;99.90;;;;;;6335624;22;20580;-88
2020/12/08 14:36:11;;;;;;;15.90;11.37;;;4.60;99.90;;;;;;6333153;22;20380;-88
2020/12/08 14:38:41;;;;;;;18.53;12.47;;;4.50;99.90;;;;;;6333468;22;20157;-87
2020/12/08 14:41:10;;;;;;;19.00;12.17;;;4.50;99.90;;;;;;6332994;22;20383;-85
2020/12/08 14:43:45;;;;;;;17.27;11.27;;;4.50;99.90;;;;;;6268510;22;20723;-89
2020/12/08 14:46:57;;;;;;;17.13;12.47;;;4.40;99.90;;;;;;6331927;22;20399;-89
2020/12/08 14:49:45;;;;;;;18.43;11.83;;;4.20;99.90;;;;;;6333796;22;20399;-87
2020/12/08 14:52:13;;;;;;;16.60;11.33;;;4.10;99.90;;;;;;6333317;22;20466;-86
2020/12/08 14:54:45;;;;;;;18.17;12.10;;;4.10;99.90;;;;;;6335187;22;20368;-86
2020/12/08 14:57:13;;;;;;;16.53;10.90;;;4.00;99.90;;;;;;6331657;22;20686;-89
2020/12/08 14:59:55;;;;;;;17.77;11.73;;;3.90;99.90;;;;;;6328942;22;20395;-87
2020/12/08 15:02:39;;;;;;;23.57;12.20;;;3.90;99.90;;;;;;6333259;22;20379;-87
2020/12/08 15:05:45;;;;;;;15.90;10.50;;;3.80;99.90;;;;;;6325758;22;20514;-89
2020/12/08 15:08:25;;;;;;;19.60;11.53;;;3.70;99.90;;;;;;6332233;22;20391;-88
2020/12/08 15:10:52;;;;;;;15.73;11.13;;;3.70;99.90;;;;;;6333241;22;20400;-87
2020/12/08 15:13:18;;;;;;;14.93;11.00;;;3.50;99.90;;;;;;6333794;22;20419;-89
2020/12/08 15:15:44;;;;;;;15.40;10.23;;;3.40;99.90;;;;;;6335392;22;20360;-86
2020/12/08 15:18:11;;;;;;;12.80;9.70;;;3.30;99.90;;;;;;6332290;22;20402;-87
2020/12/08 15:20:38;;;;;;;13.63;9.27;;;3.30;99.90;;;;;;6333632;22;20606;-88
2020/12/08 15:23:04;;;;;;;13.10;9.70;;;3.20;99.90;;;;;;6331517;22;20394;-90
2020/12/08 15:25:56;;;;;;;16.50;10.93;;;3.10;99.90;;;;;;6331282;22;20900;-89
2020/12/08 15:28:54;;;;;;;16.33;11.40;;;3.00;99.90;;;;;;6331292;22;20389;-89
2020/12/08 16:54:45;;;;;;;16.33;10.70;;;1.90;99.90;;;;;;6265998;22;20796;-90
2020/12/08 17:29:44;;;;;;;18.80;12.30;;;1.80;99.90;;;;;;6324722;22;20451;-85
2020/12/08 17:42:42;;;;;;;18.33;12.40;;;1.80;99.90;;;;;;6325935;22;20785;-85
2020/12/08 17:45:33;;;;;;;20.63;13.67;;;1.70;99.90;;;;;;6322790;22;20568;-85
2020/12/08 17:48:22;;;;;;;18.93;12.73;;;1.60;99.90;;;;;;6324360;22;20473;-85
2020/12/08 18:09:49;;;;;;;29.87;17.60;;;1.80;99.90;;;;;;6294999;22;20736;-83
2020/12/08 18:12:15;;;;;;;18.83;14.00;;;1.80;99.90;;;;;;6267125;22;20884;-83
2020/12/08 18:14:49;;;;;;;19.80;13.87;;;1.80;99.90;;;;;;6266746;22;20390;-84
2020/12/08 18:17:17;;;;;;;20.27;15.00;;;1.70;99.90;;;;;;6267657;22;20388;-83
2020/12/08 18:19:44;;;;;;;28.93;18.07;;;1.80;99.90;;;;;;6266949;22;20645;-82
2020/12/08 18:22:10;;;;;;;35.73;21.47;;;1.80;99.90;;;;;;6266469;22;20831;-82
2020/12/08 18:24:49;;;;;;;33.60;23.03;;;1.80;99.90;;;;;;6267369;22;20396;-83
2020/12/08 18:27:22;;;;;;;36.20;25.90;;;1.90;99.90;;;;;;6265946;22;20422;-83
2020/12/08 18:29:55;;;;;;;30.27;21.20;;;1.90;99.90;;;;;;6267419;22;20655;-83
2020/12/08 18:32:46;;;;;;;29.20;19.43;;;1.90;99.90;;;;;;6268264;22;20742;-84
2020/12/08 18:35:13;;;;;;;32.20;21.90;;;1.80;99.90;;;;;;6268797;22;20404;-83
2020/12/08 18:37:55;;;;;;;36.50;23.73;;;1.90;99.90;;;;;;6263423;22;20380;-84
2020/12/08 18:44:44;;;;;;;30.93;21.30;;;2.00;99.90;;;;;;6294606;22;20408;-83
2020/12/08 18:54:45;;;;;;;36.00;25.60;;;2.20;99.90;;;;;;6294965;22;21002;-83
2020/12/08 19:14:18;;;;;;;32.07;21.30;;;2.00;99.90;;;;;;6297306;22;20484;-86
2020/12/08 19:33:44;;;;;;;34.57;20.97;;;2.00;99.90;;;;;;6302945;22;20453;-86
2020/12/08 19:42:31;;;;;;;33.00;21.83;;;1.80;99.90;;;;;;6164277;22;20454;-87
2020/12/08 20:32:13;;;;;;;39.97;25.80;;;2.00;99.90;;;;;;6151019;23;20514;-91
2020/12/08 20:51:59;;;;;;;37.20;24.10;;;2.10;99.90;;;;;;6203246;23;20944;-83
2020/12/08 20:54:46;;;;;;;33.20;21.20;;;2.10;99.90;;;;;;6177727;23;20480;-86
2020/12/08 21:03:23;;;;;;;42.00;27.87;;;2.20;99.90;;;;;;6208053;23;20423;-83
2020/12/08 21:06:37;;;;;;;44.87;27.77;;;2.10;99.90;;;;;;6204704;23;20484;-84
2020/12/08 21:09:15;;;;;;;40.47;25.77;;;2.10;99.90;;;;;;6084169;23;20438;-86
2020/12/08 21:15:20;;;;;;;33.93;21.40;;;2.20;99.90;;;;;;6054777;23;20399;-86
2020/12/08 21:18:23;;;;;;;39.90;25.10;;;2.10;99.90;;;;;;6084524;23;20394;-85
2020/12/08 21:20:50;;;;;;;36.70;22.47;;;2.20;99.90;;;;;;6083352;23;20482;-84
2020/12/08 21:23:16;;;;;;;31.57;20.70;;;2.30;99.90;;;;;;6083107;23;20383;-85
2020/12/08 21:25:42;;;;;;;43.23;25.07;;;2.40;99.90;;;;;;6087706;23;20585;-85
2020/12/08 21:28:08;;;;;;;29.13;20.37;;;2.50;99.90;;;;;;6206028;23;20383;-85
2020/12/08 21:30:41;;;;;;;36.90;21.23;;;2.50;99.90;;;;;;6179231;23;20709;-86
2020/12/08 21:33:51;;;;;;;36.37;22.07;;;2.50;99.90;;;;;;6177155;23;20494;-86
2020/12/08 21:36:17;;;;;;;36.50;22.80;;;2.40;99.90;;;;;;6087727;23;20744;-86
2020/12/08 21:38:52;;;;;;;36.57;21.63;;;2.40;99.90;;;;;;6064337;23;20839;-85
2020/12/08 21:41:23;;;;;;;30.33;21.07;;;2.40;99.90;;;;;;6088292;23;20863;-85
2020/12/08 21:44:17;;;;;;;33.23;21.57;;;2.30;99.90;;;;;;6084704;23;20406;-86
2020/12/08 21:46:43;;;;;;;35.67;20.07;;;2.30;99.90;;;;;;6173939;23;20399;-86
2020/12/08 21:49:10;;;;;;;31.83;19.90;;;2.30;99.90;;;;;;6204240;23;20391;-86
2020/12/08 21:51:37;;;;;;;35.30;21.53;;;2.30;99.90;;;;;;6169745;23;20435;-86
2020/12/08 21:54:08;;;;;;;32.90;20.47;;;2.30;99.90;;;;;;6202099;23;20439;-86
2020/12/08 21:56:40;;;;;;;38.13;21.23;;;2.30;99.90;;;;;;6205038;23;20530;-86
2020/12/08 21:59:12;;;;;;;32.93;21.03;;;2.30;99.90;;;;;;6204024;23;20387;-86
2020/12/08 22:01:41;;;;;;;33.70;21.67;;;2.40;99.90;;;;;;6184561;23;20813;-85
2020/12/08 22:04:12;;;;;;;31.43;19.97;;;2.40;99.90;;;;;;6203613;23;20738;-85
2020/12/08 22:06:40;;;;;;;30.23;19.60;;;2.50;99.90;;;;;;6205749;23;20504;-85
2020/12/08 22:09:06;;;;;;;35.97;21.40;;;2.50;99.90;;;;;;6204757;23;20473;-85
2020/12/08 22:11:42;;;;;;;33.03;20.87;;;2.40;99.90;;;;;;6205137;23;20482;-85
2020/12/08 22:14:08;;;;;;;31.60;22.40;;;2.40;99.90;;;;;;6204133;23;20843;-85
2020/12/08 22:16:43;;;;;;;29.67;20.97;;;2.30;99.90;;;;;;6204003;23;20387;-84
2020/12/08 22:19:12;;;;;;;27.20;19.90;;;2.30;99.90;;;;;;6204570;23;20179;-85
2020/12/08 22:21:41;;;;;;;31.73;19.13;;;2.30;99.90;;;;;;6179532;23;20406;-84
2020/12/08 22:24:08;;;;;;;27.20;19.33;;;2.30;99.90;;;;;;6205631;23;20380;-85
2020/12/08 22:26:34;;;;;;;29.10;18.43;;;2.30;99.90;;;;;;6203447;23;20399;-85
2020/12/08 22:29:00;;;;;;;27.00;17.67;;;2.30;99.90;;;;;;6203328;23;20951;-85
2020/12/08 22:31:38;;;;;;;30.03;19.60;;;2.30;99.90;;;;;;6177388;23;20391;-85
2020/12/08 22:34:07;;;;;;;27.07;18.07;;;2.30;99.90;;;;;;6202366;23;20830;-84
2020/12/08 22:36:36;;;;;;;29.30;17.80;;;2.30;99.90;;;;;;6204256;23;20414;-84
2020/12/08 22:39:02;;;;;;;30.57;19.63;;;2.30;99.90;;;;;;6207173;23;20448;-85
2020/12/08 22:41:31;;;;;;;28.80;18.17;;;2.30;99.90;;;;;;6206910;23;20366;-84
2020/12/08 22:43:59;;;;;;;25.10;18.27;;;2.20;99.90;;;;;;6180189;23;20410;-84
2020/12/08 22:46:51;;;;;;;26.47;19.20;;;2.30;99.90;;;;;;6180892;23;20858;-84
2020/12/08 22:49:37;;;;;;;26.40;17.53;;;2.30;99.90;;;;;;6205928;23;20398;-84
2020/12/08 22:52:03;;;;;;;28.17;18.23;;;2.20;99.90;;;;;;6206895;23;20386;-84
2020/12/08 23:28:30;;;;;;;27.00;18.90;;;2.10;99.90;;;;;;6206561;23;20485;-86
2020/12/08 23:30:59;;;;;;;30.90;20.40;;;2.20;99.90;;;;;;6179036;23;20442;-85
2020/12/08 23:34:14;;;;;;;;;;;;;;;;;;;;;
2020/12/08 23:40:40;;;;;;;36.53;19.93;;;2.20;99.90;;;;;;6205767;23;20422;-84
2020/12/08 23:47:20;;;;;;;;;;;;;;;;;;;;;
2020/12/08 23:49:46;;;;;;;31.43;18.23;;;2.30;99.90;;;;;;6203929;23;20482;-84
2020/12/08 23:52:22;;;;;;;34.33;19.77;;;2.30;99.90;;;;;;6180153;23;20418;-84
2020/12/08 23:54:47;;;;;;;29.77;19.43;;;2.20;99.90;;;;;;6154627;23;20409;-85
2020/12/08 23:57:20;;;;;;;31.47;20.20;;;2.20;99.90;;;;;;6179012;23;20764;-85
2020/12/08 23:59:48;;;;;;;33.20;19.30;;;2.10;99.90;;;;;;6179683;23;20401;-86
